Time;durP1;ratioP1;P1;durP2;ratioP2;P2;SDS_P1;SDS_P2;PMS_P1;PMS_P2;Temp;Humidity;BMP_temperature;BMP_pressure;BME280_temperature;BME280_humidity;BME280_pressure;Samples;Min_cycle;Max_cycle;Signal;HPM_P1;HPM_P2
2023/04/11 04:36:55;;;;;;;;;;;;;;;;;;115384;1279;951285;-80
2023/04/11 04:40:06;;;;;;;;;;;;;;;;;;136424;1284;22511;-81
2023/04/11 04:43:10;;;;;;;;;;;;;;;;;;135619;1284;22531;-78
2023/04/11 04:46:12;;;;;;;;;;;;;;;;;;136536;1284;22363;-81
2023/04/11 04:49:15;;;;;;;;;;;;;;;;;;136544;1284;22278;-80
2023/04/11 04:52:17;;;;;;;;;;;;;;;;;;136524;1284;22344;-81
2023/04/11 04:55:19;;;;;;;;;;;;;;;;;;136532;1284;22443;-83
2023/04/11 04:58:22;;;;;;;;;;;;;;;;;;136514;1284;22276;-82
2023/04/11 05:01:25;;;;;;;;;;;;;;;;;;136526;1284;22298;-81
2023/04/11 05:04:28;;;;;;;;;;;;;;;;;;136111;1284;22496;-82
2023/04/11 05:07:31;;;;;;;;;;;;;;;;;;136552;1284;22374;-81
2023/04/11 05:10:33;;;;;;;;;;;;;;;;;;136534;1284;22357;-82
2023/04/11 05:13:35;;;;;;;;;;;;;;;;;;136250;1284;22517;-81
2023/04/11 05:16:38;;;;;;;;;;;;;;;;;;136534;1273;22322;-82
2023/04/11 05:19:40;;;;;;;;;;;;;;;;;;136534;1284;22288;-81
2023/04/11 05:22:43;;;;;;;;;;;;;;;;;;136188;1284;22558;-80
2023/04/11 05:25:48;;;;;;;;;;;;;;;;;;135939;1284;174999;-81
2023/04/11 05:28:50;;;;;;;;;;;;;;;;;;136542;1284;22288;-80
2023/04/11 05:31:53;;;;;;;;;;;;;;;;;;136567;1284;22387;-81
2023/04/11 05:34:55;;;;;;;;;;;;;;;;;;136094;1284;22607;-81
2023/04/11 05:37:58;;;;;;;;;;;;;;;;;;136350;1284;22983;-83
2023/04/11 05:41:00;;;;;;;;;;;;;;;;;;136487;1284;22702;-79
2023/04/11 05:44:02;;;;;;;;;;;;;;;;;;136534;1284;22312;-81
2023/04/11 05:47:05;;;;;;;;;;;;;;;;;;136511;1284;22334;-80
2023/04/11 05:50:07;;;;;;;;;;;;;;;;;;136508;1284;22352;-82
2023/04/11 05:53:10;;;;;;;;;;;;;;;;;;136533;1284;22917;-82
2023/04/11 05:56:12;;;;;;;;;;;;;;;;;;136516;1284;22342;-81
2023/04/11 05:59:15;;;;;;;;;;;;;;;;;;136510;1284;22289;-81
2023/04/11 06:02:17;;;;;;;;;;;;;;;;;;136490;1284;22360;-81
2023/04/11 06:05:20;;;;;;;;;;;;;;;;;;136451;1284;22361;-81
2023/04/11 06:08:23;;;;;;;;;;;;;;;;;;136475;1284;22408;-79
2023/04/11 06:11:26;;;;;;;;;;;;;;;;;;136447;1284;22766;-81
2023/04/11 06:14:31;;;;;;;;;;;;;;;;;;136471;1284;22392;-81
2023/04/11 06:17:33;;;;;;;;;;;;;;;;;;136506;1284;22337;-81
2023/04/11 06:20:35;;;;;;;;;;;;;;;;;;136501;1284;22324;-81
2023/04/11 06:23:38;;;;;;;;;;;;;;;;;;136494;1284;22331;-82
2023/04/11 06:26:40;;;;;;;;;;;;;;;;;;136509;1284;22287;-82
2023/04/11 06:29:43;;;;;;;;;;;;;;;;;;136507;1284;22416;-81
2023/04/11 06:32:45;;;;;;;;;;;;;;;;;;136498;1284;22282;-81
2023/04/11 06:35:48;;;;;;;;;;;;;;;;;;136506;1283;22747;-81
2023/04/11 06:38:50;;;;;;;;;;;;;;;;;;136277;1284;22879;-82
2023/04/11 06:41:53;;;;;;;;;;;;;;;;;;136496;1284;22299;-81
2023/04/11 06:44:55;;;;;;;;;;;;;;;;;;136517;1284;22355;-81
2023/04/11 06:47:58;;;;;;;;;;;;;;;;;;136517;1284;22330;-83
2023/04/11 06:51:00;;;;;;;;;;;;;;;;;;136538;1284;22339;-81
2023/04/11 06:54:02;;;;;;;;;;;;;;;;;;136460;1284;22511;-82
2023/04/11 06:57:40;;;;;;;;;;;;;;;;;;133619;1306;544933;-81
2023/04/11 07:00:42;;;;;;;;;;;;;;;;;;136466;1287;22429;-82
2023/04/11 07:03:45;;;;;;;;;;;;;;;;;;136318;1287;22489;-81
2023/04/11 07:06:47;;;;;;;;;;;;;;;;;;136922;1278;22542;-82
2023/04/11 07:09:48;;;;;;;;;;;;;;;;;;136479;1276;121308;-81
2023/04/11 07:12:49;;;;;;;;;;;;;;;;;;137006;1276;22580;-80
2023/04/11 07:15:50;;;;;;;;;;;;;;;;;;137251;1276;22731;-81
2023/04/11 07:18:51;;;;;;;;;;;;;;;;;;136788;1276;23479;-82
2023/04/11 07:21:52;;;;;;;;;;;;;;;;;;136727;1276;22536;-80
2023/04/11 07:24:56;;;;;;;;;;;;;;;;;;137309;1276;22991;-80
2023/04/11 07:27:57;;;;;;;;;;;;;;;;;;136698;1276;22531;-81
2023/04/11 07:30:58;;;;;;;;;;;;;;;;;;137321;1276;22329;-81
2023/04/11 07:34:00;;;;;;;;;;;;;;;;;;137304;1276;22820;-80
2023/04/11 07:37:01;;;;;;;;;;;;;;;;;;136865;1276;22974;-80
2023/04/11 07:40:08;;;;;;;;;;;;;;;;;;137278;1276;22811;-80
2023/04/11 07:43:09;;;;;;;;;;;;;;;;;;137325;1276;22277;-80
2023/04/11 07:46:13;;;;;;;;;;;;;;;;;;137270;1276;22719;-80
2023/04/11 07:49:14;;;;;;;;;;;;;;;;;;137053;1276;22835;-80
2023/04/11 07:52:15;;;;;;;;;;;;;;;;;;137276;1276;22384;-80
2023/04/11 07:55:16;;;;;;;;;;;;;;;;;;137303;1276;22391;-80
2023/04/11 07:58:17;;;;;;;;;;;;;;;;;;136853;1276;22612;-80
2023/04/11 08:01:18;;;;;;;;;;;;;;;;;;137330;1276;22362;-81
2023/04/11 08:04:20;;;;;;;;;;;;;;;;;;137286;1276;22339;-78
2023/04/11 08:07:21;;;;;;;;;;;;;;;;;;136777;1276;22649;-80
2023/04/11 08:10:22;;;;;;;;;;;;;;;;;;137236;1276;22334;-79
2023/04/11 08:13:23;;;;;;;;;;;;;;;;;;137231;1276;22324;-79
2023/04/11 08:16:24;;;;;;;;;;;;;;;;;;137182;1276;22294;-80
2023/04/11 08:19:25;;;;;;;;;;;;;;;;;;137275;1265;22293;-80
2023/04/11 08:22:26;;;;;;;;;;;;;;;;;;137225;1276;22349;-80
2023/04/11 08:25:27;;;;;;;;;;;;;;;;;;137215;1276;22447;-80
2023/04/11 08:28:28;;;;;;;;;;;;;;;;;;137198;1276;22322;-79
2023/04/11 08:31:31;;;;;;;;;;;;;;;;;;137190;1276;22292;-80
2023/04/11 08:34:32;;;;;;;;;;;;;;;;;;137149;1276;22378;-78
2023/04/11 08:37:33;;;;;;;;;;;;;;;;;;137191;1276;22831;-79
2023/04/11 08:40:34;;;;;;;;;;;;;;;;;;137258;1276;22333;-79
2023/04/11 08:43:35;;;;;;;;;;;;;;;;;;137247;1276;22290;-80
2023/04/11 08:46:36;;;;;;;;;;;;;;;;;;137231;1276;22494;-80
2023/04/11 08:49:37;;;;;;;;;;;;;;;;;;136577;1276;22945;-80
2023/04/11 08:52:38;;;;;;;;;;;;;;;;;;137279;1276;22252;-80
2023/04/11 08:55:39;;;;;;;;;;;;;;;;;;137237;1276;22369;-81
2023/04/11 08:58:40;;;;;;;;;;;;;;;;;;137270;1276;22323;-79
2023/04/11 09:01:41;;;;;;;;;;;;;;;;;;137027;1276;22885;-79
2023/04/11 09:04:42;;;;;;;;;;;;;;;;;;137276;1276;22372;-80
2023/04/11 09:07:44;;;;;;;;;;;;;;;;;;136968;1276;22483;-80
2023/04/11 09:10:45;;;;;;;;;;;;;;;;;;137181;1276;22346;-80
2023/04/11 09:13:47;;;;;;;;;;;;;;;;;;137224;1276;22341;-80
2023/04/11 09:16:48;;;;;;;;;;;;;;;;;;137220;1276;22319;-80
2023/04/11 09:19:49;;;;;;;;;;;;;;;;;;137301;1276;22307;-81
2023/04/11 09:22:50;;;;;;;;;;;;;;;;;;137071;1276;22573;-79
2023/04/11 09:25:51;;;;;;;;;;;;;;;;;;137174;1276;22495;-78
2023/04/11 09:28:52;;;;;;;;;;;;;;;;;;137216;1276;22340;-80
2023/04/11 09:31:53;;;;;;;;;;;;;;;;;;137254;1276;22320;-79
2023/04/11 09:34:54;;;;;;;;;;;;;;;;;;137274;1276;22858;-81
2023/04/11 09:37:56;;;;;;;;;;;;;;;;;;137284;1276;22382;-79
2023/04/11 09:40:57;;;;;;;;;;;;;;;;;;137273;1276;22350;-79
2023/04/11 09:43:58;;;;;;;;;;;;;;;;;;137184;1276;23127;-80
2023/04/11 09:46:59;;;;;;;;;;;;;;;;;;137255;1276;22331;-80
2023/04/11 09:50:00;;;;;;;;;;;;;;;;;;137248;1276;22782;-82
2023/04/11 09:53:01;;;;;;;;;;;;;;;;;;137202;1276;22351;-81
2023/04/11 09:56:02;;;;;;;;;;;;;;;;;;137215;1276;22373;-80
2023/04/11 09:59:04;;;;;;;;;;;;;;;;;;137270;1255;22740;-80
2023/04/11 10:02:05;;;;;;;;;;;;;;;;;;136815;1276;22541;-81
2023/04/11 10:05:07;;;;;;;;;;;;;;;;;;137284;1276;22508;-82
2023/04/11 10:08:08;;;;;;;;;;;;;;;;;;136873;1276;22498;-82
2023/04/11 10:11:10;;;;;;;;;;;;;;;;;;136911;1276;22514;-81
2023/04/11 10:14:11;;;;;;;;;;;;;;;;;;137086;1276;22494;-82
2023/04/11 10:17:12;;;;;;;;;;;;;;;;;;137031;1276;22541;-80
2023/04/11 10:20:13;;;;;;;;;;;;;;;;;;136854;1276;22519;-81
2023/04/11 10:23:15;;;;;;;;;;;;;;;;;;137276;1276;22284;-82
2023/04/11 10:26:16;;;;;;;;;;;;;;;;;;137121;1276;22526;-82
2023/04/11 10:29:17;;;;;;;;;;;;;;;;;;137137;1276;22486;-77
2023/04/11 10:32:19;;;;;;;;;;;;;;;;;;137242;1276;22540;-83
2023/04/11 10:35:21;;;;;;;;;;;;;;;;;;137049;1276;22510;-81
2023/04/11 10:38:22;;;;;;;;;;;;;;;;;;137284;1276;22404;-82
2023/04/11 10:41:23;;;;;;;;;;;;;;;;;;137243;1276;22354;-81
2023/04/11 10:44:24;;;;;;;;;;;;;;;;;;137213;1276;22304;-82
2023/04/11 10:47:27;;;;;;;;;;;;;;;;;;136927;1276;22522;-81
2023/04/11 10:50:28;;;;;;;;;;;;;;;;;;137282;1276;22307;-81
2023/04/11 10:53:32;;;;;;;;;;;;;;;;;;137228;1276;22883;-80
2023/04/11 10:56:33;;;;;;;;;;;;;;;;;;137215;1276;22435;-81
2023/04/11 10:59:35;;;;;;;;;;;;;;;;;;137215;1265;22267;-79
2023/04/11 11:02:37;;;;;;;;;;;;;;;;;;137193;1276;22254;-80
2023/04/11 11:05:38;;;;;;;;;;;;;;;;;;137198;1276;22344;-79
2023/04/11 11:08:40;;;;;;;;;;;;;;;;;;136951;1265;22499;-82
2023/04/11 11:11:41;;;;;;;;;;;;;;;;;;137294;1265;22342;-82
2023/04/11 11:14:42;;;;;;;;;;;;;;;;;;137231;1276;22258;-82
2023/04/11 11:17:44;;;;;;;;;;;;;;;;;;137265;1276;22790;-81
2023/04/11 11:20:45;;;;;;;;;;;;;;;;;;137259;1276;22280;-80
2023/04/11 11:23:46;;;;;;;;;;;;;;;;;;137234;1276;22337;-82
2023/04/11 11:26:48;;;;;;;;;;;;;;;;;;137025;1276;23077;-80
2023/04/11 11:29:49;;;;;;;;;;;;;;;;;;137232;1276;22946;-81
2023/04/11 11:32:50;;;;;;;;;;;;;;;;;;137166;1276;22484;-80
2023/04/11 11:35:52;;;;;;;;;;;;;;;;;;137272;1276;22269;-81
2023/04/11 11:38:53;;;;;;;;;;;;;;;;;;137216;1276;22327;-79
2023/04/11 11:41:55;;;;;;;;;;;;;;;;;;137207;1276;22371;-80
2023/04/11 11:44:56;;;;;;;;;;;;;;;;;;137084;1273;22514;-79
2023/04/11 11:47:57;;;;;;;;;;;;;;;;;;137278;1276;22368;-79
2023/04/11 11:50:58;;;;;;;;;;;;;;;;;;137230;1276;22266;-80
2023/04/11 11:54:00;;;;;;;;;;;;;;;;;;137493;1270;22307;-80
2023/04/11 11:57:01;;;;;;;;;;;;;;;;;;137503;1273;22377;-82
2023/04/11 12:00:04;;;;;;;;;;;;;;;;;;137533;1273;22319;-81
2023/04/11 12:03:05;;;;;;;;;;;;;;;;;;137525;1273;22444;-80
2023/04/11 12:06:06;;;;;;;;;;;;;;;;;;137511;1273;22387;-80
2023/04/11 12:09:07;;;;;;;;;;;;;;;;;;137526;1273;22787;-81
2023/04/11 12:12:09;;;;;;;;;;;;;;;;;;137506;1273;22278;-82
2023/04/11 12:15:10;;;;;;;;;;;;;;;;;;137506;1273;22318;-81
2023/04/11 12:18:11;;;;;;;;;;;;;;;;;;137544;1273;22265;-75
2023/04/11 12:21:12;;;;;;;;;;;;;;;;;;137564;1273;22250;-84
2023/04/11 12:24:13;;;;;;;;;;;;;;;;;;137521;1273;22285;-82
2023/04/11 12:27:14;;;;;;;;;;;;;;;;;;137488;1273;22678;-80
2023/04/11 12:30:15;;;;;;;;;;;;;;;;;;137515;1273;23074;-81
2023/04/11 12:33:16;;;;;;;;;;;;;;;;;;137468;1273;22314;-81
2023/04/11 12:36:17;;;;;;;;;;;;;;;;;;137553;1273;22292;-81
2023/04/11 12:39:18;;;;;;;;;;;;;;;;;;137518;1273;23611;-81
2023/04/11 12:42:19;;;;;;;;;;;;;;;;;;137535;1273;22298;-81
2023/04/11 12:45:20;;;;;;;;;;;;;;;;;;137378;1273;22530;-81
2023/04/11 12:48:21;;;;;;;;;;;;;;;;;;137558;1273;22687;-80
2023/04/11 12:51:22;;;;;;;;;;;;;;;;;;137499;1273;22385;-81
2023/04/11 12:54:24;;;;;;;;;;;;;;;;;;137380;1273;22418;-81
2023/04/11 12:57:25;;;;;;;;;;;;;;;;;;137479;1273;22697;-80
2023/04/11 13:00:27;;;;;;;;;;;;;;;;;;137526;1273;22269;-82
2023/04/11 13:03:28;;;;;;;;;;;;;;;;;;137541;1273;23025;-82
2023/04/11 13:06:29;;;;;;;;;;;;;;;;;;137457;1273;22517;-81
2023/04/11 13:09:30;;;;;;;;;;;;;;;;;;137471;1267;22413;-81
2023/04/11 13:12:33;;;;;;;;;;;;;;;;;;137540;1273;22315;-79
2023/04/11 13:15:34;;;;;;;;;;;;;;;;;;137534;1273;23006;-80
2023/04/11 13:18:35;;;;;;;;;;;;;;;;;;137523;1273;22297;-79
2023/04/11 13:21:36;;;;;;;;;;;;;;;;;;137484;1273;22272;-80
2023/04/11 13:24:37;;;;;;;;;;;;;;;;;;137454;1273;22440;-79
2023/04/11 13:27:38;;;;;;;;;;;;;;;;;;137448;1273;22273;-79
2023/04/11 13:30:40;;;;;;;;;;;;;;;;;;137499;1273;22322;-79
2023/04/11 13:33:41;;;;;;;;;;;;;;;;;;137474;1273;22329;-80
2023/04/11 13:36:42;;;;;;;;;;;;;;;;;;137519;1273;22367;-80
2023/04/11 13:39:43;;;;;;;;;;;;;;;;;;137411;1273;22515;-79
2023/04/11 13:42:44;;;;;;;;;;;;;;;;;;137548;1273;22343;-80
2023/04/11 13:45:45;;;;;;;;;;;;;;;;;;137179;1273;22563;-80
2023/04/11 13:48:46;;;;;;;;;;;;;;;;;;137033;1273;22509;-80
2023/04/11 13:51:47;;;;;;;;;;;;;;;;;;137407;1273;22629;-80
2023/04/11 13:54:48;;;;;;;;;;;;;;;;;;137374;1273;22563;-79
2023/04/11 13:57:49;;;;;;;;;;;;;;;;;;137089;1269;23012;-80
2023/04/11 14:00:50;;;;;;;;;;;;;;;;;;137553;1273;22328;-80
2023/04/11 14:03:51;;;;;;;;;;;;;;;;;;137545;1273;22453;-80
2023/04/11 14:06:54;;;;;;;;;;;;;;;;;;137113;1273;22537;-79
2023/04/11 14:09:55;;;;;;;;;;;;;;;;;;137498;1273;22558;-82
2023/04/11 14:12:56;;;;;;;;;;;;;;;;;;137540;1273;22337;-80
2023/04/11 14:15:57;;;;;;;;;;;;;;;;;;137077;1273;23050;-81
2023/04/11 14:18:58;;;;;;;;;;;;;;;;;;137564;1273;22289;-81
2023/04/11 14:21:59;;;;;;;;;;;;;;;;;;137523;1273;22379;-81
2023/04/11 14:25:00;;;;;;;;;;;;;;;;;;137525;1273;23127;-81
2023/04/11 14:28:01;;;;;;;;;;;;;;;;;;137312;1273;22525;-80
2023/04/11 14:31:02;;;;;;;;;;;;;;;;;;137362;1273;22552;-81
2023/04/11 14:34:03;;;;;;;;;;;;;;;;;;137396;1271;22473;-82
2023/04/11 14:37:05;;;;;;;;;;;;;;;;;;137200;1273;22546;-80
2023/04/11 14:40:06;;;;;;;;;;;;;;;;;;137164;1273;22537;-80
2023/04/11 14:43:07;;;;;;;;;;;;;;;;;;137527;1273;22531;-80
2023/04/11 14:46:09;;;;;;;;;;;;;;;;;;137139;1273;23001;-80
2023/04/11 14:49:10;;;;;;;;;;;;;;;;;;137074;1273;22585;-79
2023/04/11 14:52:11;;;;;;;;;;;;;;;;;;137549;1273;22826;-80
2023/04/11 14:55:12;;;;;;;;;;;;;;;;;;137139;1273;22551;-80
2023/04/11 14:58:13;;;;;;;;;;;;;;;;;;137055;1273;22517;-81
2023/04/11 15:01:14;;;;;;;;;;;;;;;;;;137390;1273;22575;-82
2023/04/11 15:04:15;;;;;;;;;;;;;;;;;;137197;1273;23071;-82
2023/04/11 15:07:16;;;;;;;;;;;;;;;;;;137064;1273;22514;-83
2023/04/11 15:10:17;;;;;;;;;;;;;;;;;;137030;1273;22511;-86
2023/04/11 15:13:19;;;;;;;;;;;;;;;;;;137341;1273;22486;-82
2023/04/11 15:16:20;;;;;;;;;;;;;;;;;;137489;1264;22306;-80
2023/04/11 15:19:21;;;;;;;;;;;;;;;;;;137525;1273;22330;-81
2023/04/11 15:22:22;;;;;;;;;;;;;;;;;;137500;1273;22338;-82
2023/04/11 15:25:26;;;;;;;;;;;;;;;;;;137448;1273;22967;-81
2023/04/11 15:28:27;;;;;;;;;;;;;;;;;;137106;1273;22531;-81
2023/04/11 15:31:29;;;;;;;;;;;;;;;;;;137484;1273;22523;-82
2023/04/11 15:34:30;;;;;;;;;;;;;;;;;;137021;1273;22556;-81
2023/04/11 15:37:31;;;;;;;;;;;;;;;;;;137043;1273;22552;-81
2023/04/11 15:40:33;;;;;;;;;;;;;;;;;;137482;1273;22565;-81
2023/04/11 15:43:34;;;;;;;;;;;;;;;;;;137111;1273;22538;-81
2023/04/11 15:46:35;;;;;;;;;;;;;;;;;;137162;1273;22504;-80
2023/04/11 15:49:36;;;;;;;;;;;;;;;;;;137303;1273;22525;-82
2023/04/11 15:52:37;;;;;;;;;;;;;;;;;;137428;1273;22517;-83
2023/04/11 15:55:38;;;;;;;;;;;;;;;;;;137047;1273;22567;-82
2023/04/11 15:58:39;;;;;;;;;;;;;;;;;;137157;1273;22534;-82
2023/04/11 16:01:40;;;;;;;;;;;;;;;;;;137452;1273;22887;-81
2023/04/11 16:04:42;;;;;;;;;;;;;;;;;;137344;1269;22531;-82
2023/04/11 16:07:43;;;;;;;;;;;;;;;;;;137261;1273;22520;-81
2023/04/11 16:10:44;;;;;;;;;;;;;;;;;;137485;1273;22370;-81
2023/04/11 16:13:45;;;;;;;;;;;;;;;;;;137161;1273;22504;-82
2023/04/11 16:16:46;;;;;;;;;;;;;;;;;;137297;1273;22489;-83
2023/04/11 16:19:47;;;;;;;;;;;;;;;;;;137551;1273;22294;-83
2023/04/11 16:22:48;;;;;;;;;;;;;;;;;;137368;1273;22507;-82
2023/04/11 16:25:50;;;;;;;;;;;;;;;;;;137189;1273;22510;-83
2023/04/11 16:28:53;;;;;;;;;;;;;;;;;;137470;1273;22494;-84
2023/04/11 16:31:54;;;;;;;;;;;;;;;;;;137494;1269;22570;-81
2023/04/11 16:34:56;;;;;;;;;;;;;;;;;;137292;1273;22501;-83
2023/04/11 16:37:57;;;;;;;;;;;;;;;;;;137234;1273;22572;-82
2023/04/11 16:40:58;;;;;;;;;;;;;;;;;;137515;1273;22374;-81
2023/04/11 16:43:59;;;;;;;;;;;;;;;;;;137190;1273;22583;-83
2023/04/11 16:47:02;;;;;;;;;;;;;;;;;;137353;1273;22947;-82
2023/04/11 16:50:04;;;;;;;;;;;;;;;;;;137496;1273;22297;-83
2023/04/11 16:53:05;;;;;;;;;;;;;;;;;;137393;1273;22528;-81
2023/04/11 16:56:06;;;;;;;;;;;;;;;;;;137483;1273;22395;-78
2023/04/11 16:59:09;;;;;;;;;;;;;;;;;;137494;1273;23017;-79
2023/04/11 17:02:10;;;;;;;;;;;;;;;;;;137329;1273;22504;-85
2023/04/11 17:05:11;;;;;;;;;;;;;;;;;;137329;1273;22563;-85
2023/04/11 17:08:13;;;;;;;;;;;;;;;;;;137333;1273;23044;-85
2023/04/11 17:11:14;;;;;;;;;;;;;;;;;;137451;1273;22549;-85
2023/04/11 17:14:15;;;;;;;;;;;;;;;;;;137511;1273;22350;-85
2023/04/11 17:17:16;;;;;;;;;;;;;;;;;;137494;1273;22552;-83
2023/04/11 17:20:17;;;;;;;;;;;;;;;;;;137406;1273;22538;-86
2023/04/11 17:23:18;;;;;;;;;;;;;;;;;;137339;1273;22492;-85
2023/04/11 17:26:19;;;;;;;;;;;;;;;;;;137043;1273;22540;-83
2023/04/11 17:29:21;;;;;;;;;;;;;;;;;;137506;1273;23041;-83
2023/04/11 17:32:22;;;;;;;;;;;;;;;;;;137458;1270;22509;-83
2023/04/11 17:35:23;;;;;;;;;;;;;;;;;;137528;1273;23024;-83
2023/04/11 17:38:24;;;;;;;;;;;;;;;;;;137494;1273;22743;-81
2023/04/11 17:41:25;;;;;;;;;;;;;;;;;;137197;1273;22493;-80
2023/04/11 17:44:26;;;;;;;;;;;;;;;;;;137554;1273;22717;-80
2023/04/11 17:47:27;;;;;;;;;;;;;;;;;;137399;1273;22549;-83
2023/04/11 17:50:29;;;;;;;;;;;;;;;;;;137195;1273;22907;-82
2023/04/11 17:53:31;;;;;;;;;;;;;;;;;;136973;1251;22501;-81
2023/04/11 17:56:32;;;;;;;;;;;;;;;;;;137084;1273;22553;-84
2023/04/11 17:59:34;;;;;;;;;;;;;;;;;;137520;1273;22511;-82
2023/04/11 18:02:35;;;;;;;;;;;;;;;;;;136918;1273;22502;-81
2023/04/11 18:05:36;;;;;;;;;;;;;;;;;;137093;1269;22964;-81
2023/04/11 18:08:37;;;;;;;;;;;;;;;;;;137514;1273;23029;-80
2023/04/11 18:11:40;;;;;;;;;;;;;;;;;;137219;1273;22547;-79
2023/04/11 18:14:41;;;;;;;;;;;;;;;;;;137552;1273;22578;-81
2023/04/11 18:17:43;;;;;;;;;;;;;;;;;;137532;1273;22542;-81
2023/04/11 18:20:44;;;;;;;;;;;;;;;;;;136988;1273;22503;-81
2023/04/11 18:23:45;;;;;;;;;;;;;;;;;;137095;1273;22545;-82
2023/04/11 18:26:46;;;;;;;;;;;;;;;;;;137458;1273;22552;-82
2023/04/11 18:29:50;;;;;;;;;;;;;;;;;;136990;1273;23023;-82
2023/04/11 18:32:52;;;;;;;;;;;;;;;;;;137130;1273;22527;-82
2023/04/11 18:35:53;;;;;;;;;;;;;;;;;;137538;1273;22403;-82
2023/04/11 18:38:54;;;;;;;;;;;;;;;;;;137392;1273;22520;-82
2023/04/11 18:41:55;;;;;;;;;;;;;;;;;;137338;1273;22600;-82
2023/04/11 18:44:58;;;;;;;;;;;;;;;;;;137555;1273;22325;-82
2023/04/11 18:47:59;;;;;;;;;;;;;;;;;;137167;1273;22501;-82
2023/04/11 18:51:00;;;;;;;;;;;;;;;;;;137346;1273;22529;-83
2023/04/11 18:54:01;;;;;;;;;;;;;;;;;;137508;1273;22480;-81
2023/04/11 18:57:02;;;;;;;;;;;;;;;;;;136455;1273;23082;-82
2023/04/11 19:00:13;;;;;;;;;;;;;;;;;;136601;1273;22464;-81
2023/04/11 19:03:14;;;;;;;;;;;;;;;;;;137170;1273;22555;-82
2023/04/11 19:06:16;;;;;;;;;;;;;;;;;;137384;1273;23012;-82
2023/04/11 19:09:17;;;;;;;;;;;;;;;;;;137170;1273;163000;-81
2023/04/11 19:12:18;;;;;;;;;;;;;;;;;;137178;1269;22524;-81
2023/04/11 19:15:19;;;;;;;;;;;;;;;;;;137546;1273;22497;-82
2023/04/11 19:18:20;;;;;;;;;;;;;;;;;;137165;1273;22523;-82
2023/04/11 19:21:21;;;;;;;;;;;;;;;;;;137129;1273;22523;-82
2023/04/11 19:24:22;;;;;;;;;;;;;;;;;;137569;1273;22797;-82
2023/04/11 19:27:23;;;;;;;;;;;;;;;;;;137179;1273;22604;-81
2023/04/11 19:30:24;;;;;;;;;;;;;;;;;;137042;1273;22488;-81
2023/04/11 19:33:25;;;;;;;;;;;;;;;;;;137506;1273;22281;-81
2023/04/11 19:36:28;;;;;;;;;;;;;;;;;;137502;1273;22399;-80
2023/04/11 19:39:36;;;;;;;;;;;;;;;;;;136895;1273;22514;-81
2023/04/11 19:42:38;;;;;;;;;;;;;;;;;;137076;1273;22532;-82
2023/04/11 19:45:40;;;;;;;;;;;;;;;;;;137377;1273;22520;-81
2023/04/11 19:48:41;;;;;;;;;;;;;;;;;;137552;1273;22433;-82
2023/04/11 19:51:44;;;;;;;;;;;;;;;;;;137538;1273;22256;-81
2023/04/11 19:54:45;;;;;;;;;;;;;;;;;;137550;1273;22396;-80
2023/04/11 19:57:47;;;;;;;;;;;;;;;;;;137504;1273;23171;-82
2023/04/11 20:00:48;;;;;;;;;;;;;;;;;;137558;1273;22344;-81
2023/04/11 20:03:52;;;;;;;;;;;;;;;;;;137539;1273;22287;-82
2023/04/11 20:06:56;;;;;;;;;;;;;;;;;;137562;1273;22309;-82
2023/04/11 20:09:57;;;;;;;;;;;;;;;;;;137499;1273;22536;-82
2023/04/11 20:12:58;;;;;;;;;;;;;;;;;;137484;1273;23179;-81
2023/04/11 20:15:59;;;;;;;;;;;;;;;;;;137320;1273;22505;-81
2023/04/11 20:19:00;;;;;;;;;;;;;;;;;;137568;1273;22403;-81
2023/04/11 20:22:01;;;;;;;;;;;;;;;;;;137520;1273;22952;-81
2023/04/11 20:25:03;;;;;;;;;;;;;;;;;;137493;1273;22413;-81
2023/04/11 20:28:04;;;;;;;;;;;;;;;;;;137532;1273;22335;-81
2023/04/11 20:31:05;;;;;;;;;;;;;;;;;;137540;1273;22344;-81
2023/04/11 20:34:06;;;;;;;;;;;;;;;;;;137443;1273;22420;-82
2023/04/11 20:37:07;;;;;;;;;;;;;;;;;;137497;1273;22817;-82
2023/04/11 20:40:09;;;;;;;;;;;;;;;;;;137481;1273;22272;-82
2023/04/11 20:43:10;;;;;;;;;;;;;;;;;;137479;1273;22360;-81
2023/04/11 20:46:12;;;;;;;;;;;;;;;;;;137545;1273;22307;-82
2023/04/11 20:49:14;;;;;;;;;;;;;;;;;;137066;1273;22535;-82
2023/04/11 20:52:16;;;;;;;;;;;;;;;;;;137428;1273;22522;-82
2023/04/11 20:55:19;;;;;;;;;;;;;;;;;;137227;1271;22499;-82
2023/04/11 20:58:20;;;;;;;;;;;;;;;;;;137534;1273;22960;-82
2023/04/11 21:01:21;;;;;;;;;;;;;;;;;;137568;1272;22254;-82
2023/04/11 21:04:22;;;;;;;;;;;;;;;;;;137539;1273;22319;-83
2023/04/11 21:07:24;;;;;;;;;;;;;;;;;;137560;1273;23044;-82
2023/04/11 21:10:25;;;;;;;;;;;;;;;;;;137189;1270;22472;-82
2023/04/11 21:13:26;;;;;;;;;;;;;;;;;;137525;1273;22509;-83
2023/04/11 21:16:27;;;;;;;;;;;;;;;;;;136839;1273;22506;-84
2023/04/11 21:19:28;;;;;;;;;;;;;;;;;;137015;1273;24265;-83
2023/04/11 21:22:29;;;;;;;;;;;;;;;;;;137477;1273;22522;-85
2023/04/11 21:25:30;;;;;;;;;;;;;;;;;;136885;1273;22543;-82
2023/04/11 21:28:31;;;;;;;;;;;;;;;;;;136924;1258;22526;-82
2023/04/11 21:31:32;;;;;;;;;;;;;;;;;;137272;1273;22517;-83
2023/04/11 21:34:33;;;;;;;;;;;;;;;;;;137252;1273;22596;-83
2023/04/11 21:37:34;;;;;;;;;;;;;;;;;;136886;1273;22511;-83
2023/04/11 21:40:35;;;;;;;;;;;;;;;;;;137001;1273;23622;-85
2023/04/11 21:43:36;;;;;;;;;;;;;;;;;;137467;1270;22494;-84
2023/04/11 21:46:37;;;;;;;;;;;;;;;;;;136971;1273;22504;-85
2023/04/11 21:49:38;;;;;;;;;;;;;;;;;;137029;1273;24256;-84
2023/04/11 21:52:39;;;;;;;;;;;;;;;;;;137480;1268;22510;-84
2023/04/11 21:55:40;;;;;;;;;;;;;;;;;;136886;1273;23047;-84
2023/04/11 21:58:41;;;;;;;;;;;;;;;;;;136894;1273;23050;-84
2023/04/11 22:01:42;;;;;;;;;;;;;;;;;;137306;1273;22514;-84
2023/04/11 22:04:44;;;;;;;;;;;;;;;;;;137117;1273;22554;-84
2023/04/11 22:07:48;;;;;;;;;;;;;;;;;;136867;1273;22514;-84
2023/04/11 22:10:49;;;;;;;;;;;;;;;;;;137274;1270;22519;-84
2023/04/11 22:13:51;;;;;;;;;;;;;;;;;;137347;1273;22491;-83
2023/04/11 22:16:56;;;;;;;;;;;;;;;;;;137009;1273;22904;-83
2023/04/11 22:19:58;;;;;;;;;;;;;;;;;;136936;1273;22441;-82
2023/04/11 22:22:59;;;;;;;;;;;;;;;;;;137381;1273;22506;-83
2023/04/11 22:26:00;;;;;;;;;;;;;;;;;;136798;1272;22530;-84
2023/04/11 22:29:02;;;;;;;;;;;;;;;;;;136832;1273;24225;-82
2023/04/11 22:32:03;;;;;;;;;;;;;;;;;;137436;1273;22970;-83
2023/04/11 22:35:04;;;;;;;;;;;;;;;;;;136888;1273;23032;-83
2023/04/11 22:38:05;;;;;;;;;;;;;;;;;;136925;1273;22530;-82
2023/04/11 22:41:06;;;;;;;;;;;;;;;;;;137359;1273;22508;-82
2023/04/11 22:44:08;;;;;;;;;;;;;;;;;;137153;1273;22505;-82
2023/04/11 22:47:14;;;;;;;;;;;;;;;;;;136838;1270;22513;-83
2023/04/11 22:50:15;;;;;;;;;;;;;;;;;;136997;1273;22531;-82
2023/04/11 22:53:16;;;;;;;;;;;;;;;;;;137359;1273;22959;-82
2023/04/11 22:56:17;;;;;;;;;;;;;;;;;;136884;1273;22505;-82
2023/04/11 22:59:18;;;;;;;;;;;;;;;;;;136843;1273;22513;-81
2023/04/11 23:02:20;;;;;;;;;;;;;;;;;;137518;1273;22899;-82
2023/04/11 23:05:21;;;;;;;;;;;;;;;;;;136887;1273;22569;-82
2023/04/11 23:08:22;;;;;;;;;;;;;;;;;;136878;1273;22498;-82
2023/04/11 23:11:23;;;;;;;;;;;;;;;;;;137477;1273;22516;-82
2023/04/11 23:14:29;;;;;;;;;;;;;;;;;;136975;1273;22527;-82
2023/04/11 23:17:31;;;;;;;;;;;;;;;;;;136745;1273;23008;-82
2023/04/11 23:20:33;;;;;;;;;;;;;;;;;;137227;1273;22462;-84
2023/04/11 23:23:34;;;;;;;;;;;;;;;;;;137273;1273;22511;-82
2023/04/11 23:26:35;;;;;;;;;;;;;;;;;;136878;1273;22605;-81
2023/04/11 23:29:37;;;;;;;;;;;;;;;;;;136873;1273;22527;-81
2023/04/11 23:32:38;;;;;;;;;;;;;;;;;;137554;1273;22549;-82
2023/04/11 23:35:39;;;;;;;;;;;;;;;;;;136988;1270;22490;-81
2023/04/11 23:38:40;;;;;;;;;;;;;;;;;;137322;1273;22535;-81
2023/04/11 23:41:42;;;;;;;;;;;;;;;;;;137446;1273;22550;-81
2023/04/11 23:44:43;;;;;;;;;;;;;;;;;;137024;1273;22503;-82
2023/04/11 23:47:44;;;;;;;;;;;;;;;;;;136911;1271;22962;-82
2023/04/11 23:50:45;;;;;;;;;;;;;;;;;;137219;1273;22516;-82
2023/04/11 23:53:46;;;;;;;;;;;;;;;;;;137147;1273;22534;-81
2023/04/11 23:56:47;;;;;;;;;;;;;;;;;;136972;1273;22510;-82
2023/04/11 23:59:48;;;;;;;;;;;;;;;;;;137147;1273;25383;-82
